createdAt,value
2023-04-11T00:02:17.777Z,100547.66
2023-04-11T00:04:45.640Z,100566.69
2023-04-11T00:07:13.402Z,100568.06
2023-04-11T00:09:41.098Z,100585.88
2023-04-11T00:12:08.805Z,100581.56
2023-04-11T00:14:36.524Z,100575.28
2023-04-11T00:17:06.097Z,100566.28
2023-04-11T00:19:33.835Z,100565.41
2023-04-11T00:22:01.519Z,100559.88
2023-04-11T00:24:29.201Z,100563.09
2023-04-11T00:26:58.326Z,100561.28
2023-04-11T00:29:25.987Z,100563.34
2023-04-11T00:31:55.428Z,100566.53
2023-04-11T00:34:24.566Z,100572.75
2023-04-11T00:36:52.300Z,100570.75
2023-04-11T00:39:21.273Z,100565.16
2023-04-11T00:41:49.276Z,100564.78
2023-04-11T00:44:17.081Z,100573.09
2023-04-11T00:46:46.162Z,100568.47
2023-04-11T00:49:14.243Z,100566.94
2023-04-11T00:51:43.376Z,100574.84
2023-04-11T00:54:12.133Z,100576.09
2023-04-11T00:56:39.975Z,100570.63
2023-04-11T00:59:07.644Z,100568.47
2023-04-11T01:01:36.341Z,100566.81
2023-04-11T01:04:04.716Z,100575.22
2023-04-11T01:06:33.669Z,100576.69
2023-04-11T01:09:04.836Z,100572.53
2023-04-11T01:11:33.489Z,100576.84
2023-04-11T01:14:01.210Z,100575.03
2023-04-11T01:16:28.899Z,100576.50
2023-04-11T01:18:56.817Z,100575.31
2023-04-11T01:21:26.129Z,100574.72
2023-04-11T01:23:56.442Z,100579.44
2023-04-11T01:26:24.113Z,100580.41
2023-04-11T01:28:52.488Z,100585.81
2023-04-11T01:31:20.253Z,100577.97
2023-04-11T01:33:48.316Z,100573.22
2023-04-11T01:36:15.960Z,100572.25
2023-04-11T01:38:43.743Z,100586.53
2023-04-11T01:41:13.214Z,100577.78
2023-04-11T01:43:41.031Z,100578.13
2023-04-11T01:46:09.085Z,100569.84
2023-04-11T01:48:36.791Z,100572.22
2023-04-11T01:51:04.938Z,100570.53
2023-04-11T01:53:32.754Z,100567.19
2023-04-11T01:56:00.467Z,100571.50
2023-04-11T01:58:29.617Z,100567.06
2023-04-11T02:00:57.293Z,100571.97
2023-04-11T02:03:25.073Z,100571.25
2023-04-11T02:05:52.916Z,100581.56
2023-04-11T02:08:20.635Z,100570.88
2023-04-11T02:10:48.387Z,100573.38
2023-04-11T02:13:16.058Z,100574.34
2023-04-11T02:15:45.180Z,100566.81
2023-04-11T02:18:13.083Z,100568.59
2023-04-11T02:20:41.514Z,100573.44
2023-04-11T02:23:09.285Z,100578.72
2023-04-11T02:25:37.045Z,100575.81
2023-04-11T02:28:07.425Z,100579.91
2023-04-11T02:30:35.903Z,100573.66
2023-04-11T02:33:05.121Z,100573.53
2023-04-11T02:35:32.874Z,100577.69
2023-04-11T02:38:00.745Z,100574.09
2023-04-11T02:40:28.856Z,100573.25
2023-04-11T02:42:56.479Z,100557.69
2023-04-11T02:45:24.143Z,100571.00
2023-04-11T02:47:51.865Z,100569.34
2023-04-11T02:50:21.107Z,100579.06
2023-04-11T02:52:49.663Z,100576.28
2023-04-11T02:55:17.414Z,100584.66
2023-04-11T02:57:45.073Z,100586.34
2023-04-11T03:00:13.738Z,100586.59
2023-04-11T03:02:41.759Z,100591.63
2023-04-11T03:05:10.454Z,100593.31
2023-04-11T03:07:40.617Z,100584.66
2023-04-11T03:10:09.620Z,100590.78
2023-04-11T03:12:37.358Z,100592.13
2023-04-11T03:15:05.763Z,100586.84
2023-04-11T03:17:34.369Z,100595.75
2023-04-11T03:20:02.106Z,100601.97
2023-04-11T03:22:29.800Z,100604.59
2023-04-11T03:24:58.835Z,100609.16
2023-04-11T03:27:27.121Z,100615.16
2023-04-11T03:29:54.920Z,100615.41
2023-04-11T03:32:22.718Z,100616.50
2023-04-11T03:34:51.785Z,100622.84
2023-04-11T03:37:19.545Z,100616.75
2023-04-11T03:39:47.196Z,100621.94
2023-04-11T03:42:16.293Z,100612.31
2023-04-11T03:44:44.026Z,100612.31
2023-04-11T03:47:11.757Z,100611.72
2023-04-11T03:49:39.620Z,100620.59
2023-04-11T03:52:07.398Z,100639.22
2023-04-11T03:54:35.194Z,100627.56
2023-04-11T03:57:02.859Z,100633.94
2023-04-11T03:59:31.995Z,100635.13
2023-04-11T04:01:59.698Z,100630.09
2023-04-11T04:04:27.566Z,100636.34
2023-04-11T04:06:56.781Z,100631.66
2023-04-11T04:09:24.689Z,100621.09
2023-04-11T04:11:52.365Z,100632.75
2023-04-11T04:14:20.399Z,100624.22
2023-04-11T04:16:49.549Z,100620.53
2023-04-11T04:19:17.237Z,100625.41
2023-04-11T04:21:45.893Z,100621.94
2023-04-11T04:24:13.602Z,100629.84
2023-04-11T04:26:41.300Z,100627.22
2023-04-11T04:29:10.272Z,100630.81
2023-04-11T04:31:38.724Z,100632.00
2023-04-11T04:34:09.567Z,100638.50
2023-04-11T04:36:46.205Z,100646.78
2023-04-11T04:39:17.457Z,100648.97
2023-04-11T04:41:46.432Z,100658.19
2023-04-11T04:44:15.967Z,100655.19
2023-04-11T04:46:43.737Z,100650.16
2023-04-11T04:49:12.777Z,100650.38
2023-04-11T04:51:41.228Z,100666.22
2023-04-11T04:54:08.919Z,100668.84
2023-04-11T04:56:36.606Z,100662.63
2023-04-11T04:59:04.400Z,100669.81
2023-04-11T05:01:33.010Z,100674.25
2023-04-11T05:04:01.945Z,100673.53
2023-04-11T05:06:32.586Z,100684.44
2023-04-11T05:09:03.764Z,100685.28
2023-04-11T05:11:31.459Z,100685.06
2023-04-11T05:13:59.117Z,100683.25
2023-04-11T05:16:26.831Z,100686.13
2023-04-11T05:18:54.454Z,100694.78
2023-04-11T05:21:22.312Z,100692.00
2023-04-11T05:23:51.397Z,100696.31
2023-04-11T05:26:19.042Z,100707.59
2023-04-11T05:28:47.007Z,100698.59
2023-04-11T05:31:14.786Z,100700.16
2023-04-11T05:33:43.203Z,100703.84
2023-04-11T05:36:13.950Z,100709.25
2023-04-11T05:38:41.885Z,100714.53
2023-04-11T05:41:11.548Z,100719.81
2023-04-11T05:43:39.410Z,100725.09
2023-04-11T05:46:08.895Z,100726.03
2023-04-11T05:48:38.157Z,100728.47
2023-04-11T05:51:06.159Z,100732.78
2023-04-11T05:53:33.816Z,100727.38
2023-04-11T05:56:01.830Z,100742.38
2023-04-11T05:58:30.994Z,100745.97
2023-04-11T06:00:59.471Z,100756.16
2023-04-11T06:03:27.587Z,100749.19
2023-04-11T06:05:55.551Z,100757.34
2023-04-11T06:08:23.355Z,100761.06
2023-04-11T06:10:51.062Z,100758.66
2023-04-11T06:13:18.782Z,100764.53
2023-04-11T06:15:47.917Z,100763.69
2023-04-11T06:18:15.688Z,100770.44
2023-04-11T06:20:43.310Z,100784.22
2023-04-11T06:23:11.062Z,100782.66
2023-04-11T06:25:38.770Z,100777.38
2023-04-11T06:28:06.549Z,100784.34
2023-04-11T06:30:34.223Z,100795.00
2023-04-11T06:33:03.456Z,100797.31
2023-04-11T06:35:31.269Z,100802.78
2023-04-11T06:37:59.045Z,100802.09
2023-04-11T06:40:26.735Z,100810.13
2023-04-11T06:42:55.297Z,100814.66
2023-04-11T06:45:23.068Z,100810.47
2023-04-11T06:47:51.078Z,100828.91
2023-04-11T06:50:20.355Z,100828.31
2023-04-11T06:52:48.102Z,100828.41
2023-04-11T06:55:16.136Z,100811.88
2023-04-11T06:57:44.674Z,100827.69
2023-04-11T07:00:13.585Z,100833.69
2023-04-11T07:02:41.904Z,100829.75
2023-04-11T07:05:10.318Z,100835.66
2023-04-11T07:07:39.765Z,100833.84
2023-04-11T07:10:08.642Z,100838.38
2023-04-11T07:12:36.347Z,100836.63
2023-04-11T07:15:04.764Z,100852.91
2023-04-11T07:17:32.470Z,100854.59
2023-04-11T07:20:00.196Z,100864.94
2023-04-11T07:22:29.262Z,100862.31
2023-04-11T07:24:58.394Z,100859.41
2023-04-11T07:27:26.585Z,100866.75
2023-04-11T07:29:54.279Z,100865.47
2023-04-11T07:32:21.995Z,100869.44
2023-04-11T07:34:49.766Z,100876.97
2023-04-11T07:37:18.195Z,100862.34
2023-04-11T07:39:45.911Z,100864.53
2023-04-11T07:42:14.994Z,100863.56
2023-04-11T07:44:42.692Z,100872.22
2023-04-11T07:47:10.387Z,100879.66
2023-04-11T07:49:38.096Z,100876.81
2023-04-11T07:52:06.016Z,100877.50
2023-04-11T07:54:34.154Z,100882.31
2023-04-11T07:57:02.488Z,100864.03
2023-04-11T07:59:31.756Z,100873.88
2023-04-11T08:02:01.104Z,100882.31
2023-04-11T08:04:32.525Z,100875.59
2023-04-11T08:07:00.508Z,100884.59
2023-04-11T08:09:28.618Z,100886.41
2023-04-11T08:11:57.015Z,100888.06
2023-04-11T08:14:24.778Z,100891.22
2023-04-11T08:16:54.454Z,100884.22
2023-04-11T08:19:22.357Z,100896.97
2023-04-11T08:21:50.044Z,100892.16
2023-04-11T08:24:17.846Z,100899.47
2023-04-11T08:26:45.617Z,100895.78
2023-04-11T08:29:13.404Z,100901.28
2023-04-11T08:31:43.510Z,100911.00
2023-04-11T08:34:12.790Z,100909.47
2023-04-11T08:36:41.403Z,100913.31
2023-04-11T08:39:09.076Z,100903.19
2023-04-11T08:41:37.171Z,100919.06
2023-04-11T08:44:05.630Z,100906.56
2023-04-11T08:46:34.193Z,100898.75
2023-04-11T08:49:02.068Z,100902.94
2023-04-11T08:51:31.557Z,100897.88
2023-04-11T08:54:02.225Z,100911.31
2023-04-11T08:56:29.929Z,100909.25
2023-04-11T08:58:57.604Z,100910.28
2023-04-11T09:01:27.269Z,100910.13
2023-04-11T09:03:55.359Z,100911.44
2023-04-11T09:06:23.505Z,100925.88
2023-04-11T09:08:52.650Z,100924.47
2023-04-11T09:11:20.778Z,100926.38
2023-04-11T09:13:48.593Z,100926.13
2023-04-11T09:16:16.539Z,100915.63
2023-04-11T09:18:46.252Z,100913.59
2023-04-11T09:21:15.295Z,100926.34
2023-04-11T09:23:43.379Z,100935.88
2023-04-11T09:26:13.592Z,100932.63
2023-04-11T09:28:42.959Z,100929.53
2023-04-11T09:31:12.951Z,100934.94
2023-04-11T09:33:41.264Z,100915.13
2023-04-11T09:36:20.142Z,100935.63
2023-04-11T09:38:47.931Z,100952.41
2023-04-11T09:41:17.281Z,100933.53
2023-04-11T09:43:56.617Z,100917.84
2023-04-11T09:46:25.366Z,100925.78
2023-04-11T09:48:54.647Z,100928.84
2023-04-11T09:53:53.383Z,100935.75
2023-04-11T09:56:24.126Z,100939.16
2023-04-11T09:58:52.401Z,100938.91
2023-04-11T10:01:20.629Z,100940.56
2023-04-11T10:03:51.084Z,100936.84
2023-04-11T10:06:24.212Z,100940.69
2023-04-11T10:08:52.741Z,100940.56
2023-04-11T10:11:24.276Z,100943.63
2023-04-11T10:13:52.085Z,100940.34
2023-04-11T10:16:22.309Z,100941.66
2023-04-11T10:19:23.634Z,100946.47
2023-04-11T10:21:51.627Z,100936.78
2023-04-11T10:24:21.089Z,100944.56
2023-04-11T10:26:52.095Z,100947.63
2023-04-11T10:29:51.369Z,100963.56
2023-04-11T10:32:24.712Z,100955.16
2023-04-11T10:35:20.689Z,100947.59
2023-04-11T10:37:49.175Z,100931.97
2023-04-11T10:40:19.666Z,100956.72
2023-04-11T10:42:49.373Z,100949.56
2023-04-11T10:45:27.008Z,100958.03
2023-04-11T10:48:13.168Z,100960.00
2023-04-11T10:50:42.517Z,100950.06
2023-04-11T10:53:14.222Z,100967.53
2023-04-11T10:55:47.273Z,100973.19
2023-04-11T10:58:19.712Z,100955.91
2023-04-11T11:01:25.680Z,100956.41
2023-04-11T11:04:00.518Z,100957.91
2023-04-11T11:06:29.029Z,100961.44
2023-04-11T11:08:57.880Z,100962.59
2023-04-11T11:11:25.623Z,100970.72
2023-04-11T11:13:56.597Z,100985.53
2023-04-11T11:16:25.890Z,100977.72
2023-04-11T11:18:55.020Z,100985.44
2023-04-11T11:21:28.334Z,100984.22
2023-04-11T11:23:58.288Z,100993.41
2023-04-11T11:26:39.341Z,100981.06
2023-04-11T11:29:09.086Z,100991.69
2023-04-11T11:31:39.259Z,100985.56
2023-04-11T11:34:22.319Z,100996.81
2023-04-11T11:36:51.255Z,100981.53
2023-04-11T11:39:21.144Z,100992.31
2023-04-11T11:41:50.172Z,101002.00
2023-04-11T11:44:26.713Z,100996.28
2023-04-11T11:47:04.768Z,100995.03
2023-04-11T11:49:45.558Z,101003.56
2023-04-11T11:52:13.822Z,101023.50
2023-04-11T11:54:45.553Z,101011.19
2023-04-11T11:57:13.328Z,101001.69
2023-04-11T11:59:42.675Z,101007.06
2023-04-11T12:02:10.611Z,101012.31
2023-04-11T12:04:38.528Z,101011.81
2023-04-11T12:07:11.238Z,101015.19
2023-04-11T12:09:39.807Z,101014.59
2023-04-11T12:12:10.161Z,101021.16
2023-04-11T12:14:37.816Z,101011.47
2023-04-11T12:17:09.595Z,101010.06
2023-04-11T12:19:37.298Z,101015.72
2023-04-11T12:22:05.057Z,101020.22
2023-04-11T12:24:32.767Z,101016.34
2023-04-11T12:29:48.103Z,101028.94
2023-04-11T12:32:17.168Z,101022.53
2023-04-11T12:34:44.921Z,101024.34
2023-04-11T12:37:12.609Z,101025.94
2023-04-11T12:39:40.318Z,101014.66
2023-04-11T12:42:08.987Z,101027.97
2023-04-11T12:44:37.652Z,101028.59
2023-04-11T12:47:05.592Z,101036.13
2023-04-11T12:49:34.661Z,101038.66
2023-04-11T12:52:02.866Z,101031.09
2023-04-11T12:54:30.519Z,101027.44
2023-04-11T12:56:58.354Z,101029.91
2023-04-11T12:59:26.724Z,101034.72
2023-04-11T13:01:54.412Z,101032.38
2023-04-11T13:04:22.492Z,101038.97
2023-04-11T13:06:52.377Z,101038.38
2023-04-11T13:09:20.047Z,101050.66
2023-04-11T13:11:47.690Z,101046.31
2023-04-11T13:14:15.432Z,101034.50
2023-04-11T13:16:45.743Z,101034.63
2023-04-11T13:19:13.520Z,101039.22
2023-04-11T13:21:41.152Z,101048.03
2023-04-11T13:24:10.284Z,101034.78
2023-04-11T13:26:39.336Z,101039.44
2023-04-11T13:29:07.691Z,101055.28
2023-04-11T13:31:35.704Z,101046.88
2023-04-11T13:34:03.523Z,101056.66
2023-04-11T13:36:32.288Z,101061.41
2023-04-11T13:39:00.192Z,101054.59
2023-04-11T13:41:29.407Z,101056.97
2023-04-11T13:43:57.082Z,101050.72
2023-04-11T13:46:24.736Z,101045.81
2023-04-11T13:48:52.948Z,101055.16
2023-04-11T13:51:20.691Z,101061.34
2023-04-11T13:53:48.352Z,101049.44
2023-04-11T13:56:16.085Z,101051.53
2023-04-11T13:58:45.405Z,101059.91
2023-04-11T14:01:13.133Z,101046.97
2023-04-11T14:03:42.929Z,101051.19
2023-04-11T14:06:10.910Z,101045.00
2023-04-11T14:08:38.609Z,101044.69
2023-04-11T14:11:06.597Z,101044.63
2023-04-11T14:13:34.291Z,101045.16
2023-04-11T14:16:08.586Z,101051.88
2023-04-11T14:18:37.240Z,101041.81
2023-04-11T14:21:06.084Z,101031.47
2023-04-11T14:24:41.688Z,101038.75
2023-04-11T14:27:09.567Z,101050.47
2023-04-11T14:29:37.569Z,101039.94
2023-04-11T14:32:06.900Z,101043.88
2023-04-11T14:34:34.732Z,101036.44
2023-04-11T14:37:02.471Z,101050.75
2023-04-11T14:39:30.432Z,101042.84
2023-04-11T14:42:01.941Z,101056.84
2023-04-11T14:44:29.969Z,101048.03
2023-04-11T14:46:57.762Z,101046.50
2023-04-11T14:49:25.581Z,101035.47
2023-04-11T14:51:53.229Z,101039.53
2023-04-11T14:54:21.388Z,101034.50
2023-04-11T14:56:49.171Z,101039.25
2023-04-11T14:59:18.291Z,101027.19
2023-04-11T15:01:46.423Z,101033.63
2023-04-11T15:04:14.682Z,101025.75
2023-04-11T15:06:42.476Z,101035.56
2023-04-11T15:09:10.344Z,101027.28
2023-04-11T15:11:37.999Z,101027.16
2023-04-11T15:14:05.705Z,101027.97
2023-04-11T15:16:34.831Z,101032.00
2023-04-11T15:19:02.556Z,101027.69
2023-04-11T15:21:30.271Z,101034.84
2023-04-11T15:23:58.230Z,101029.41
2023-04-11T15:26:26.334Z,101022.44
2023-04-11T15:28:54.105Z,101037.53
2023-04-11T15:31:26.468Z,101021.97
2023-04-11T15:33:57.181Z,101022.97
2023-04-11T15:36:25.051Z,101024.78
2023-04-11T15:38:52.760Z,101028.72
2023-04-11T15:41:20.800Z,101021.84
2023-04-11T15:43:48.563Z,101015.81
2023-04-11T15:46:16.328Z,101017.66
2023-04-11T15:48:44.243Z,101016.78
2023-04-11T15:51:21.409Z,101026.31
2023-04-11T15:53:49.409Z,101012.59
2023-04-11T15:56:18.926Z,101015.94
2023-04-11T15:58:49.648Z,101016.25
2023-04-11T16:01:22.837Z,101010.34
2023-04-11T16:03:51.703Z,101016.53
2023-04-11T16:06:21.113Z,101016.00
2023-04-11T16:08:50.479Z,101021.34
2023-04-11T16:11:19.819Z,101000.34
2023-04-11T16:13:48.955Z,101005.66
2023-04-11T16:16:16.661Z,101000.66
2023-04-11T16:18:44.443Z,101009.00
2023-04-11T16:21:16.456Z,101001.75
2023-04-11T16:23:47.912Z,100999.78
2023-04-11T16:26:16.131Z,101009.59
2023-04-11T16:28:44.106Z,100993.34
2023-04-11T16:31:14.150Z,100991.25
2023-04-11T16:33:41.872Z,100995.28
2023-04-11T16:36:12.996Z,100993.47
2023-04-11T16:38:40.721Z,100986.78
2023-04-11T16:41:09.757Z,100993.66
2023-04-11T16:43:37.425Z,100997.28
2023-04-11T16:46:07.398Z,100996.44
2023-04-11T16:48:35.152Z,100979.94
2023-04-11T16:51:02.973Z,100981.03
2023-04-11T16:53:30.880Z,100988.03
2023-04-11T16:55:58.584Z,100982.72
2023-04-11T16:58:28.532Z,100985.22
2023-04-11T17:00:56.342Z,100979.06
2023-04-11T17:03:24.130Z,100981.88
2023-04-11T17:05:52.094Z,100986.63
2023-04-11T17:08:19.784Z,100981.63
2023-04-11T17:10:47.454Z,100986.63
2023-04-11T17:13:17.992Z,100981.88
2023-04-11T17:15:47.153Z,100984.97
2023-04-11T17:18:15.317Z,100983.56
2023-04-11T17:20:43.758Z,100988.88
2023-04-11T17:23:11.409Z,100985.25
2023-04-11T17:25:39.099Z,100978.38
2023-04-11T17:28:06.840Z,100971.53
2023-04-11T17:30:35.406Z,100970.84
2023-04-11T17:33:04.594Z,100962.63
2023-04-11T17:35:32.345Z,100961.50
2023-04-11T17:38:00.623Z,100960.25
2023-04-11T17:40:28.489Z,100957.84
2023-04-11T17:42:57.668Z,100964.03
2023-04-11T17:45:25.458Z,100956.50
2023-04-11T17:47:53.255Z,100952.97
2023-04-11T17:50:22.468Z,100959.25
2023-04-11T17:52:50.132Z,100954.25
2023-04-11T17:55:18.874Z,100947.25
2023-04-11T17:57:47.290Z,100957.16
2023-04-11T18:00:19.876Z,100952.28
2023-04-11T18:02:49.068Z,100944.72
2023-04-11T18:05:23.895Z,100951.97
2023-04-11T18:07:56.488Z,100949.44
2023-04-11T18:10:25.823Z,100947.34
2023-04-11T18:12:54.436Z,100943.16
2023-04-11T18:15:22.703Z,100950.38
2023-04-11T18:17:51.861Z,100948.03
2023-04-11T18:20:19.882Z,100953.72
2023-04-11T18:22:48.702Z,100941.59
2023-04-11T18:25:17.882Z,100941.13
2023-04-11T18:27:45.600Z,100944.09
2023-04-11T18:30:14.647Z,100948.94
2023-04-11T18:32:47.297Z,100944.06
2023-04-11T18:35:16.120Z,100946.41
2023-04-11T18:37:44.016Z,100936.47
2023-04-11T18:40:13.987Z,100945.41
2023-04-11T18:42:45.948Z,100946.91
2023-04-11T18:45:15.026Z,100940.19
2023-04-11T18:47:43.098Z,100930.25
2023-04-11T18:50:11.373Z,100934.56
2023-04-11T18:52:39.110Z,100933.19
2023-04-11T18:55:07.962Z,100929.94
2023-04-11T18:57:37.945Z,100923.38
2023-04-11T19:00:17.496Z,100920.97
2023-04-11T19:02:46.803Z,100919.59
2023-04-11T19:05:15.600Z,100916.75
2023-04-11T19:07:43.833Z,100911.47
2023-04-11T19:10:12.736Z,100920.63
2023-04-11T19:12:41.028Z,100914.63
2023-04-11T19:15:11.637Z,100911.38
2023-04-11T19:17:39.719Z,100918.63
2023-04-11T19:20:12.315Z,100907.34
2023-04-11T19:22:41.284Z,100903.25
2023-04-11T19:25:11.076Z,100900.75
2023-04-11T19:27:41.396Z,100901.09
2023-04-11T19:30:15.724Z,100897.88
2023-04-11T19:32:46.056Z,100891.16
2023-04-11T19:35:14.304Z,100892.28
2023-04-11T19:37:42.800Z,100882.78
2023-04-11T19:40:12.344Z,100877.72
2023-04-11T19:42:40.550Z,100874.38
2023-04-11T19:45:11.885Z,100882.47
2023-04-11T19:47:40.662Z,100874.66
2023-04-11T19:50:11.604Z,100872.25
2023-04-11T19:52:39.437Z,100871.53
2023-04-11T19:55:09.369Z,100872.53
2023-04-11T19:57:38.301Z,100874.59
2023-04-11T20:00:11.817Z,100866.75
2023-04-11T20:02:44.321Z,100858.25
2023-04-11T20:05:12.422Z,100855.00
2023-04-11T20:07:40.229Z,100866.56
2023-04-11T20:10:09.014Z,100857.78
2023-04-11T20:12:36.698Z,100849.16
2023-04-11T20:15:04.606Z,100859.75
2023-04-11T20:17:32.371Z,100846.63
2023-04-11T20:20:06.076Z,100844.97
2023-04-11T20:22:34.177Z,100839.78
2023-04-11T20:25:02.005Z,100830.16
2023-04-11T20:27:29.754Z,100827.38
2023-04-11T20:29:57.869Z,100819.56
2023-04-11T20:32:25.652Z,100803.97
2023-04-11T20:34:53.443Z,100799.66
2023-04-11T20:37:23.418Z,100811.22
2023-04-11T20:39:51.702Z,100799.78
2023-04-11T20:42:20.491Z,100795.84
2023-04-11T20:44:48.450Z,100792.50
2023-04-11T20:47:16.169Z,100795.97
2023-04-11T20:49:45.613Z,100786.31
2023-04-11T20:52:13.550Z,100783.97
2023-04-11T20:54:42.598Z,100779.50
2023-04-11T20:57:10.248Z,100781.16
2023-04-11T20:59:39.123Z,100779.63
2023-04-11T21:02:06.963Z,100764.41
2023-04-11T21:04:34.890Z,100767.44
2023-04-11T21:07:02.952Z,100754.94
2023-04-11T21:09:30.806Z,100751.81
2023-04-11T21:11:59.853Z,100747.19
2023-04-11T21:14:27.538Z,100737.72
2023-04-11T21:16:55.215Z,100737.72
2023-04-11T21:19:22.918Z,100734.59
2023-04-11T21:21:50.705Z,100732.66
2023-04-11T21:24:18.374Z,100724.72
2023-04-11T21:26:46.124Z,100716.78
2023-04-11T21:29:15.212Z,100714.84
2023-04-11T21:31:43.056Z,100707.88
2023-04-11T21:34:10.835Z,100708.16
2023-04-11T21:36:38.480Z,100706.47
2023-04-11T21:39:08.709Z,100704.81
2023-04-11T21:41:36.584Z,100702.25
2023-04-11T21:44:04.412Z,100697.56
2023-04-11T21:46:33.546Z,100693.97
2023-04-11T21:49:01.766Z,100688.66
2023-04-11T21:51:29.435Z,100683.38
2023-04-11T21:53:57.317Z,100686.03
2023-04-11T21:56:25.237Z,100682.41
2023-04-11T21:58:52.966Z,100677.94
2023-04-11T22:01:21.108Z,100671.00
2023-04-11T22:03:52.502Z,100680.59
2023-04-11T22:06:20.521Z,100680.22
2023-04-11T22:08:50.534Z,100672.28
2023-04-11T22:11:18.366Z,100668.66
2023-04-11T22:13:46.746Z,100666.03
2023-04-11T22:16:15.107Z,100660.03
2023-04-11T22:18:49.737Z,100653.91
2023-04-11T22:21:21.021Z,100648.72
2023-04-11T22:23:54.366Z,100635.50
2023-04-11T22:26:26.374Z,100641.06
2023-04-11T22:28:55.396Z,100630.75
2023-04-11T22:31:23.311Z,100646.63
2023-04-11T22:33:51.127Z,100632.66
2023-04-11T22:36:21.482Z,100631.97
2023-04-11T22:38:49.300Z,100626.81
2023-04-11T22:41:17.256Z,100619.59
2023-04-11T22:43:45.333Z,100611.09
2023-04-11T22:46:13.675Z,100601.50
2023-04-11T22:48:41.960Z,100605.94
2023-04-11T22:51:09.714Z,100597.88
2023-04-11T22:53:42.306Z,100586.56
2023-04-11T22:56:11.785Z,100585.63
2023-04-11T22:58:39.499Z,100571.44
2023-04-11T23:01:08.108Z,100576.72
2023-04-11T23:03:35.890Z,100563.88
2023-04-11T23:06:03.690Z,100560.25
2023-04-11T23:08:32.526Z,100547.78
2023-04-11T23:11:01.896Z,100543.31
2023-04-11T23:13:29.923Z,100529.13
2023-04-11T23:15:57.972Z,100529.50
2023-04-11T23:18:25.756Z,100528.53
2023-04-11T23:20:53.485Z,100517.81
2023-04-11T23:23:21.243Z,100510.31
2023-04-11T23:25:49.543Z,100503.22
2023-04-11T23:28:18.635Z,100491.94
2023-04-11T23:30:46.393Z,100490.38
2023-04-11T23:33:15.449Z,100490.38
2023-04-11T23:35:43.164Z,100479.56
2023-04-11T23:38:11.586Z,100477.75
2023-04-11T23:40:39.488Z,100470.78
2023-04-11T23:43:07.210Z,100468.16
2023-04-11T23:45:36.450Z,100464.38
2023-04-11T23:48:04.378Z,100465.75
2023-04-11T23:50:32.139Z,100451.13
2023-04-11T23:52:59.797Z,100446.84
2023-04-11T23:55:27.537Z,100439.44
2023-04-11T23:57:55.281Z,100446.56
